createdAt,value
2022-10-18T00:01:10.556Z,19.73
2022-10-18T00:03:39.040Z,20.25
2022-10-18T00:06:09.141Z,19.90
2022-10-18T00:08:38.436Z,18.15
2022-10-18T00:11:08.448Z,17.95
2022-10-18T00:13:37.084Z,19.35
2022-10-18T00:16:07.207Z,20.40
2022-10-18T00:18:36.638Z,19.60
2022-10-18T00:21:06.940Z,18.85
2022-10-18T00:23:36.277Z,18.70
2022-10-18T00:26:06.282Z,17.35
2022-10-18T00:28:36.132Z,19.30
2022-10-18T00:31:12.451Z,19.02
2022-10-18T00:33:42.773Z,17.15
2022-10-18T00:36:11.512Z,17.88
2022-10-18T00:38:40.165Z,16.67
2022-10-18T00:41:09.877Z,16.02
2022-10-18T00:43:53.705Z,18.90
2022-10-18T00:46:22.239Z,17.15
2022-10-18T00:48:52.539Z,18.35
2022-10-18T00:51:23.347Z,19.90
2022-10-18T00:53:51.562Z,18.17
2022-10-18T00:56:21.095Z,18.77
2022-10-18T00:58:50.583Z,16.40
2022-10-18T01:01:18.793Z,16.27
2022-10-18T01:03:46.984Z,17.30
2022-10-18T01:06:16.359Z,16.40
2022-10-18T01:09:00.098Z,16.40
2022-10-18T01:11:54.376Z,17.35
2022-10-18T01:14:35.301Z,18.85
2022-10-18T01:17:10.085Z,18.38
2022-10-18T01:20:16.267Z,19.75
2022-10-18T01:22:49.801Z,17.92
2022-10-18T01:25:30.871Z,17.27
2022-10-18T01:28:08.535Z,18.25
2022-10-18T01:30:47.372Z,16.73
2022-10-18T01:33:23.029Z,17.65
2022-10-18T01:35:56.131Z,18.00
2022-10-18T01:38:26.419Z,17.63
2022-10-18T01:40:56.298Z,17.55
2022-10-18T01:43:26.659Z,17.20
2022-10-18T01:45:57.847Z,15.90
2022-10-18T01:48:26.319Z,19.05
2022-10-18T01:50:54.813Z,16.85
2022-10-18T01:53:29.628Z,16.48
2022-10-18T01:56:20.517Z,16.08
2022-10-18T01:59:03.028Z,16.23
2022-10-18T02:01:40.938Z,16.20
2022-10-18T02:04:20.432Z,19.08
2022-10-18T02:06:55.553Z,18.17
2022-10-18T02:09:32.762Z,16.42
2022-10-18T02:12:03.960Z,19.23
2022-10-18T02:14:33.346Z,19.20
2022-10-18T02:17:06.766Z,17.90
2022-10-18T02:19:39.069Z,20.70
2022-10-18T02:22:09.270Z,20.52
2022-10-18T02:24:40.443Z,21.90
2022-10-18T02:27:09.170Z,26.27
2022-10-18T02:29:37.708Z,24.23
2022-10-18T02:32:12.354Z,24.48
2022-10-18T02:34:44.060Z,27.02
2022-10-18T02:37:12.772Z,26.30
2022-10-18T02:39:46.759Z,26.75
2022-10-18T02:42:15.875Z,26.38
2022-10-18T02:44:44.300Z,25.25
2022-10-18T02:47:13.777Z,27.80
2022-10-18T02:49:41.852Z,26.23
2022-10-18T02:52:09.954Z,25.42
2022-10-18T02:54:37.945Z,24.63
2022-10-18T02:57:06.002Z,26.23
2022-10-18T02:59:36.180Z,27.02
2022-10-18T03:02:04.414Z,27.40
2022-10-18T03:04:33.819Z,25.33
2022-10-18T03:07:01.842Z,26.08
2022-10-18T03:09:29.820Z,26.27
2022-10-18T03:11:58.839Z,26.85
2022-10-18T03:14:26.823Z,26.27
2022-10-18T03:16:54.881Z,26.25
2022-10-18T03:19:23.166Z,26.52
2022-10-18T03:21:52.623Z,25.38
2022-10-18T03:24:20.912Z,26.45
2022-10-18T03:26:49.006Z,25.55
2022-10-18T03:29:17.070Z,23.02
2022-10-18T03:31:45.098Z,21.40
2022-10-18T03:34:13.712Z,23.30
2022-10-18T03:36:42.616Z,24.58
2022-10-18T03:39:13.128Z,23.05
2022-10-18T03:41:41.225Z,24.65
2022-10-18T03:44:09.272Z,24.40
2022-10-18T03:46:37.338Z,23.75
2022-10-18T03:49:05.370Z,22.90
2022-10-18T03:51:33.435Z,23.60
2022-10-18T03:54:03.988Z,25.70
2022-10-18T03:56:33.591Z,24.92
2022-10-18T03:59:02.794Z,24.10
2022-10-18T04:01:30.913Z,24.77
2022-10-18T04:03:58.910Z,23.05
2022-10-18T04:06:26.966Z,23.52
2022-10-18T04:08:57.491Z,22.90
2022-10-18T04:11:25.571Z,23.80
2022-10-18T04:13:55.016Z,22.40
2022-10-18T04:16:23.131Z,21.33
2022-10-18T04:18:51.392Z,21.63
2022-10-18T04:21:19.743Z,21.13
2022-10-18T04:23:48.502Z,21.90
2022-10-18T04:26:17.252Z,23.13
2022-10-18T04:28:45.451Z,22.83
2022-10-18T04:31:15.031Z,22.42
2022-10-18T04:33:43.204Z,23.35
2022-10-18T04:36:11.180Z,22.60
2022-10-18T04:38:39.280Z,22.70
2022-10-18T04:41:07.499Z,19.90
2022-10-18T04:43:35.585Z,22.90
2022-10-18T04:46:03.659Z,22.23
2022-10-18T04:48:33.095Z,21.42
2022-10-18T04:51:01.136Z,21.27
2022-10-18T04:53:29.167Z,20.58
2022-10-18T04:55:57.135Z,21.67
2022-10-18T04:58:25.581Z,23.15
2022-10-18T05:00:53.650Z,24.30
2022-10-18T05:03:21.701Z,23.08
2022-10-18T05:06:01.420Z,23.63
2022-10-18T05:08:32.246Z,23.42
2022-10-18T05:11:00.503Z,23.75
2022-10-18T05:13:28.739Z,22.20
2022-10-18T05:15:59.432Z,20.88
2022-10-18T05:18:28.031Z,21.25
2022-10-18T05:20:57.951Z,22.42
2022-10-18T05:23:26.210Z,21.20
2022-10-18T05:25:54.633Z,20.77
2022-10-18T05:28:41.118Z,20.25
2022-10-18T05:31:11.965Z,18.30
2022-10-18T05:33:40.151Z,18.33
2022-10-18T05:36:10.510Z,17.52
2022-10-18T05:38:40.291Z,17.88
2022-10-18T05:41:08.342Z,16.77
2022-10-18T05:43:38.636Z,16.63
2022-10-18T05:46:13.486Z,17.25
2022-10-18T05:48:43.147Z,16.88
2022-10-18T05:51:13.014Z,15.98
2022-10-18T05:53:41.072Z,16.08
2022-10-18T05:56:11.830Z,16.20
2022-10-18T05:58:40.824Z,15.20
2022-10-18T06:01:09.923Z,16.27
2022-10-18T06:03:38.088Z,15.82
2022-10-18T06:06:08.215Z,16.70
2022-10-18T06:08:38.173Z,16.08
2022-10-18T06:11:08.346Z,17.00
2022-10-18T06:13:36.490Z,18.38
2022-10-18T06:16:04.476Z,18.85
2022-10-18T06:18:32.553Z,20.00
2022-10-18T06:21:00.794Z,20.15
2022-10-18T06:23:29.704Z,20.85
2022-10-18T06:26:01.971Z,20.77
2022-10-18T06:28:30.897Z,20.70
2022-10-18T06:30:59.385Z,20.02
2022-10-18T06:33:27.703Z,20.58
2022-10-18T06:35:57.143Z,18.55
2022-10-18T06:38:25.378Z,17.80
2022-10-18T06:40:53.693Z,17.70
2022-10-18T06:43:23.740Z,17.40
2022-10-18T06:45:52.509Z,18.95
2022-10-18T06:48:21.024Z,16.90
2022-10-18T06:50:53.440Z,17.10
2022-10-18T06:53:21.520Z,16.73
2022-10-18T06:55:49.533Z,17.83
2022-10-18T06:58:17.670Z,17.73
2022-10-18T07:00:47.106Z,16.88
2022-10-18T07:03:15.184Z,16.40
2022-10-18T07:05:43.664Z,16.60
2022-10-18T07:08:11.723Z,17.27
2022-10-18T07:10:39.769Z,16.27
2022-10-18T07:13:30.784Z,15.85
2022-10-18T07:16:03.866Z,16.52
2022-10-18T07:18:32.020Z,16.33
2022-10-18T07:21:02.685Z,16.20
2022-10-18T07:23:30.786Z,17.00
2022-10-18T07:25:58.870Z,16.80
2022-10-18T07:28:27.188Z,14.93
2022-10-18T07:30:55.229Z,15.70
2022-10-18T07:33:25.983Z,15.18
2022-10-18T07:35:54.004Z,13.63
2022-10-18T07:38:22.802Z,13.93
2022-10-18T07:40:58.124Z,14.43
2022-10-18T07:43:26.330Z,12.23
2022-10-18T07:45:54.804Z,12.85
2022-10-18T07:48:24.366Z,11.13
2022-10-18T07:50:52.503Z,11.23
2022-10-18T07:53:23.021Z,10.65
2022-10-18T07:55:51.136Z,11.38
2022-10-18T07:58:19.125Z,9.68
2022-10-18T08:00:47.148Z,10.68
2022-10-18T08:03:15.121Z,9.27
2022-10-18T08:05:44.748Z,8.55
2022-10-18T08:08:12.743Z,9.93
2022-10-18T08:10:40.719Z,9.35
2022-10-18T08:13:08.761Z,8.30
2022-10-18T08:15:36.739Z,8.23
2022-10-18T08:18:04.965Z,8.10
2022-10-18T08:20:33.379Z,9.23
2022-10-18T08:23:02.812Z,7.80
2022-10-18T08:25:31.136Z,7.50
2022-10-18T08:27:59.214Z,6.97
2022-10-18T08:30:27.285Z,7.60
2022-10-18T08:32:55.514Z,6.78
2022-10-18T08:35:25.848Z,6.47
2022-10-18T08:37:54.194Z,5.57
2022-10-18T08:40:23.615Z,5.70
2022-10-18T08:43:01.891Z,5.25
2022-10-18T08:45:42.038Z,6.05
2022-10-18T08:48:22.312Z,5.10
2022-10-18T08:50:52.095Z,5.25
2022-10-18T08:53:26.311Z,4.78
2022-10-18T08:56:02.049Z,3.80
2022-10-18T08:58:33.467Z,3.15
2022-10-18T09:01:13.818Z,4.22
2022-10-18T09:04:00.033Z,3.03
2022-10-18T09:06:32.776Z,2.88
2022-10-18T09:11:52.642Z,3.40
2022-10-18T09:14:49.326Z,2.55
2022-10-18T09:17:27.837Z,2.53
2022-10-18T09:20:12.220Z,2.47
2022-10-18T09:22:51.773Z,2.63
2022-10-18T09:25:21.845Z,2.47
2022-10-18T09:27:56.181Z,2.00
2022-10-18T09:30:38.166Z,2.15
2022-10-18T09:33:20.189Z,2.45
2022-10-18T09:35:53.791Z,1.67
2022-10-18T09:41:01.854Z,2.33
2022-10-18T09:43:42.663Z,1.98
2022-10-18T09:46:11.884Z,1.33
2022-10-18T09:48:46.813Z,1.73
2022-10-18T09:51:22.058Z,1.80
2022-10-18T09:54:05.007Z,1.73
2022-10-18T09:56:42.045Z,2.25
2022-10-18T09:59:31.469Z,1.67
2022-10-18T10:01:59.561Z,1.92
2022-10-18T10:04:27.574Z,2.10
2022-10-18T10:06:57.334Z,1.88
2022-10-18T10:09:29.514Z,1.85
2022-10-18T10:11:58.508Z,1.60
2022-10-18T10:14:30.367Z,1.70
2022-10-18T10:17:02.297Z,1.60
2022-10-18T10:19:34.416Z,1.60
2022-10-18T10:22:06.698Z,1.70
2022-10-18T10:24:41.154Z,2.08
2022-10-18T10:27:17.941Z,1.42
2022-10-18T10:29:56.613Z,1.48
2022-10-18T10:35:01.213Z,1.33
2022-10-18T10:37:35.441Z,1.23
2022-10-18T10:40:22.103Z,1.27
2022-10-18T10:43:12.973Z,1.50
2022-10-18T10:46:03.731Z,1.67
2022-10-18T10:48:34.709Z,1.42
2022-10-18T10:51:08.215Z,1.80
2022-10-18T10:53:45.404Z,1.40
2022-10-18T10:56:26.336Z,1.50
2022-10-18T10:58:56.627Z,1.40
2022-10-18T11:01:32.134Z,1.40
2022-10-18T11:04:02.921Z,1.60
2022-10-18T11:06:50.207Z,1.75
2022-10-18T11:09:32.958Z,1.48
2022-10-18T11:12:13.270Z,1.50
2022-10-18T11:14:45.943Z,1.13
2022-10-18T11:17:25.027Z,1.17
2022-10-18T11:20:24.230Z,1.30
2022-10-18T11:23:00.937Z,1.60
2022-10-18T11:25:45.342Z,1.70
2022-10-18T11:28:22.902Z,1.20
2022-10-18T11:31:01.613Z,2.03
2022-10-18T11:34:07.552Z,1.60
2022-10-18T11:36:49.460Z,1.52
2022-10-18T11:39:42.392Z,1.27
2022-10-18T11:42:21.735Z,1.50
2022-10-18T11:45:01.291Z,1.60
2022-10-18T11:47:39.164Z,1.40
2022-10-18T11:50:17.364Z,1.58
2022-10-18T11:52:57.530Z,1.45
2022-10-18T11:55:41.389Z,1.75
2022-10-18T11:58:30.779Z,1.38
2022-10-18T12:01:07.411Z,1.40
2022-10-18T12:03:45.610Z,1.55
2022-10-18T12:06:19.394Z,1.20
2022-10-18T12:08:51.602Z,1.30
2022-10-18T12:11:23.764Z,1.05
2022-10-18T12:13:56.963Z,1.60
2022-10-18T12:16:49.949Z,1.48
2022-10-18T12:19:25.212Z,1.58
2022-10-18T12:21:59.227Z,1.70
2022-10-18T12:24:31.506Z,1.65
2022-10-18T12:27:01.906Z,1.50
2022-10-18T12:29:38.151Z,1.83
2022-10-18T12:32:11.710Z,1.90
2022-10-18T12:34:44.600Z,1.63
2022-10-18T12:37:41.871Z,1.25
2022-10-18T12:40:20.259Z,1.35
2022-10-18T12:42:51.725Z,1.67
2022-10-18T12:48:02.046Z,1.60
2022-10-18T12:50:34.868Z,1.37
2022-10-18T12:53:08.878Z,1.90
2022-10-18T12:55:38.473Z,1.58
2022-10-18T12:58:29.413Z,1.40
2022-10-18T13:01:06.532Z,1.67
2022-10-18T13:03:42.239Z,1.05
2022-10-18T13:06:10.387Z,1.50
2022-10-18T13:08:42.819Z,1.38
2022-10-18T13:11:37.294Z,1.40
2022-10-18T13:14:44.031Z,1.33
2022-10-18T13:17:31.179Z,1.35
2022-10-18T13:20:25.614Z,1.38
2022-10-18T13:23:10.051Z,1.20
2022-10-18T13:25:53.525Z,1.27
2022-10-18T13:28:32.122Z,0.93
2022-10-18T13:31:13.381Z,0.98
2022-10-18T13:33:43.088Z,1.20
2022-10-18T13:36:24.745Z,1.20
2022-10-18T13:39:06.022Z,1.10
2022-10-18T13:42:14.148Z,1.00
2022-10-18T13:44:44.724Z,1.00
2022-10-18T13:47:14.889Z,1.02
2022-10-18T13:50:25.677Z,1.23
2022-10-18T13:53:13.711Z,1.30
2022-10-18T13:56:02.734Z,1.15
2022-10-18T13:58:49.176Z,1.08
2022-10-18T14:01:35.658Z,1.30
2022-10-18T14:04:41.003Z,0.98
2022-10-18T14:07:11.482Z,0.85
2022-10-18T14:09:48.882Z,1.15
2022-10-18T14:12:28.018Z,1.30
2022-10-18T14:15:03.931Z,1.05
2022-10-18T14:20:25.689Z,1.70
2022-10-18T14:23:03.864Z,1.08
2022-10-18T14:25:35.678Z,1.10
2022-10-18T14:28:12.487Z,1.10
2022-10-18T14:30:55.122Z,1.00
2022-10-18T14:33:33.713Z,1.10
2022-10-18T14:36:10.416Z,1.20
2022-10-18T14:38:49.876Z,1.45
2022-10-18T14:41:21.829Z,1.40
2022-10-18T14:43:50.958Z,1.10
2022-10-18T14:46:27.194Z,1.20
2022-10-18T14:48:59.491Z,0.85
2022-10-18T14:51:29.899Z,1.25
2022-10-18T14:53:58.080Z,1.00
2022-10-18T14:56:30.125Z,0.70
2022-10-18T14:59:01.572Z,1.10
2022-10-18T15:01:32.904Z,1.00
2022-10-18T15:04:03.855Z,0.93
2022-10-18T15:06:34.231Z,1.10
2022-10-18T15:09:06.745Z,1.00
2022-10-18T15:11:35.396Z,0.95
2022-10-18T15:14:08.536Z,1.10
2022-10-18T15:16:39.615Z,1.10
2022-10-18T15:19:24.934Z,0.85
2022-10-18T15:22:13.658Z,1.35
2022-10-18T15:24:44.928Z,1.48
2022-10-18T15:27:16.153Z,1.33
2022-10-18T15:29:46.753Z,1.50
2022-10-18T15:32:22.625Z,1.25
2022-10-18T15:34:50.739Z,1.20
2022-10-18T15:37:32.193Z,1.40
2022-10-18T15:40:41.992Z,0.90
2022-10-18T15:43:36.240Z,1.10
2022-10-18T15:46:07.047Z,1.30
2022-10-18T15:48:39.733Z,1.20
2022-10-18T15:51:09.766Z,1.02
2022-10-18T15:53:52.121Z,1.10
2022-10-18T15:56:35.121Z,1.50
2022-10-18T16:01:36.611Z,1.88
2022-10-18T16:04:12.300Z,1.70
2022-10-18T16:06:40.350Z,1.52
2022-10-18T16:09:08.399Z,1.42
2022-10-18T16:11:36.411Z,1.60
2022-10-18T16:14:04.739Z,1.42
2022-10-18T16:16:32.984Z,1.38
2022-10-18T16:19:01.041Z,1.70
2022-10-18T16:21:32.556Z,1.83
2022-10-18T16:24:00.825Z,1.70
2022-10-18T16:26:29.810Z,1.30
2022-10-18T16:28:59.106Z,1.85
2022-10-18T16:31:28.683Z,1.30
2022-10-18T16:33:58.529Z,1.40
2022-10-18T16:36:29.115Z,1.60
2022-10-18T16:39:00.859Z,1.35
2022-10-18T16:41:29.261Z,1.40
2022-10-18T16:43:57.250Z,1.77
2022-10-18T16:46:27.709Z,1.67
2022-10-18T16:48:56.396Z,1.58
2022-10-18T16:51:26.947Z,1.92
2022-10-18T16:53:55.488Z,2.13
2022-10-18T16:56:28.259Z,2.28
2022-10-18T16:58:56.475Z,1.98
2022-10-18T17:01:25.656Z,1.60
2022-10-18T17:03:54.170Z,2.30
2022-10-18T17:06:24.629Z,2.70
2022-10-18T17:08:54.032Z,3.63
2022-10-18T17:11:25.598Z,4.15
2022-10-18T17:13:54.343Z,3.35
2022-10-18T17:16:26.697Z,3.28
2022-10-18T17:18:54.786Z,2.00
2022-10-18T17:21:23.773Z,1.90
2022-10-18T17:23:52.040Z,2.30
2022-10-18T17:26:30.159Z,2.63
2022-10-18T17:29:02.007Z,2.10
2022-10-18T17:31:31.276Z,2.42
2022-10-18T17:34:01.795Z,2.17
2022-10-18T17:36:30.858Z,2.28
2022-10-18T17:38:59.689Z,2.67
2022-10-18T17:41:27.844Z,2.10
2022-10-18T17:43:55.903Z,1.58
2022-10-18T17:46:25.567Z,2.00
2022-10-18T17:48:54.875Z,1.92
2022-10-18T17:51:23.281Z,1.80
2022-10-18T17:53:51.334Z,1.98
2022-10-18T17:56:19.410Z,1.80
2022-10-18T17:58:51.572Z,2.00
2022-10-18T18:01:21.923Z,1.88
2022-10-18T18:03:52.212Z,1.92
2022-10-18T18:06:22.625Z,2.08
2022-10-18T18:08:51.415Z,2.13
2022-10-18T18:11:19.673Z,2.40
2022-10-18T18:13:47.708Z,1.80
2022-10-18T18:16:17.924Z,2.00
2022-10-18T18:18:47.369Z,2.10
2022-10-18T18:21:17.177Z,2.30
2022-10-18T18:23:45.732Z,2.00
2022-10-18T18:26:14.297Z,2.22
2022-10-18T18:28:42.446Z,2.22
2022-10-18T18:31:13.127Z,2.03
2022-10-18T18:33:41.260Z,2.30
2022-10-18T18:36:10.156Z,3.05
2022-10-18T18:38:42.587Z,3.03
2022-10-18T18:41:15.826Z,2.70
2022-10-18T18:43:46.366Z,2.67
2022-10-18T18:46:14.636Z,2.40
2022-10-18T18:48:43.082Z,2.50
2022-10-18T18:51:13.719Z,2.63
2022-10-18T18:53:44.635Z,2.60
2022-10-18T18:56:15.193Z,2.38
2022-10-18T18:58:45.071Z,2.50
2022-10-18T19:01:17.348Z,2.53
2022-10-18T19:03:46.265Z,2.63
2022-10-18T19:06:16.675Z,3.17
2022-10-18T19:08:46.958Z,2.70
2022-10-18T19:11:18.057Z,2.75
2022-10-18T19:13:46.726Z,2.83
2022-10-18T19:16:23.900Z,2.45
2022-10-18T19:18:57.099Z,2.85
2022-10-18T19:21:27.230Z,2.72
2022-10-18T19:23:57.259Z,3.33
2022-10-18T19:26:29.125Z,3.35
2022-10-18T19:29:01.996Z,3.10
2022-10-18T19:31:30.415Z,2.72
2022-10-18T19:33:59.621Z,3.30
2022-10-18T19:36:28.343Z,3.33
2022-10-18T19:38:58.249Z,2.80
2022-10-18T19:41:28.740Z,3.83
2022-10-18T19:43:57.676Z,2.80
2022-10-18T19:46:26.005Z,2.80
2022-10-18T19:48:55.046Z,3.33
2022-10-18T19:51:27.041Z,3.13
2022-10-18T19:53:58.435Z,3.58
2022-10-18T19:56:28.083Z,3.28
2022-10-18T19:58:57.260Z,3.05
2022-10-18T20:01:25.745Z,3.00
2022-10-18T20:03:53.984Z,3.60
2022-10-18T20:06:22.493Z,2.70
2022-10-18T20:08:50.995Z,2.72
2022-10-18T20:11:21.968Z,2.67
2022-10-18T20:13:50.550Z,2.72
2022-10-18T20:16:25.486Z,2.97
2022-10-18T20:18:57.780Z,2.90
2022-10-18T20:21:26.954Z,2.63
2022-10-18T20:23:55.616Z,2.50
2022-10-18T20:26:26.400Z,2.75
2022-10-18T20:28:57.926Z,2.65
2022-10-18T20:31:28.366Z,2.95
2022-10-18T20:33:58.130Z,2.53
2022-10-18T20:36:27.331Z,3.58
2022-10-18T20:38:55.949Z,2.78
2022-10-18T20:41:27.225Z,2.50
2022-10-18T20:43:57.830Z,2.75
2022-10-18T20:46:26.272Z,2.63
2022-10-18T20:48:54.964Z,2.67
2022-10-18T20:51:26.582Z,2.65
2022-10-18T20:53:54.703Z,2.50
2022-10-18T20:56:26.737Z,2.50
2022-10-18T20:58:56.807Z,2.50
2022-10-18T21:01:26.875Z,2.40
2022-10-18T21:03:57.333Z,2.45
2022-10-18T21:06:27.546Z,2.10
2022-10-18T21:08:56.883Z,2.30
2022-10-18T21:11:27.523Z,2.20
2022-10-18T21:13:57.551Z,2.33
2022-10-18T21:16:26.122Z,2.03
2022-10-18T21:18:54.906Z,2.60
2022-10-18T21:21:25.200Z,2.03
2022-10-18T21:23:54.606Z,2.38
2022-10-18T21:26:24.587Z,2.20
2022-10-18T21:28:56.703Z,2.10
2022-10-18T21:31:26.601Z,2.00
2022-10-18T21:33:58.985Z,2.28
2022-10-18T21:36:27.987Z,2.38
2022-10-18T21:38:56.006Z,2.20
2022-10-18T21:41:25.242Z,2.15
2022-10-18T21:43:56.014Z,1.98
2022-10-18T21:46:26.926Z,2.25
2022-10-18T21:48:56.937Z,2.03
2022-10-18T21:51:26.598Z,1.90
2022-10-18T21:53:59.123Z,1.90
2022-10-18T21:56:32.402Z,1.88
2022-10-18T21:59:02.915Z,1.80
2022-10-18T22:01:33.445Z,1.95
2022-10-18T22:04:03.052Z,2.10
2022-10-18T22:09:07.140Z,1.98
2022-10-18T22:11:38.841Z,2.25
2022-10-18T22:14:08.373Z,2.03
2022-10-18T22:16:36.558Z,1.77
2022-10-18T22:19:06.063Z,2.00
2022-10-18T22:21:34.642Z,2.08
2022-10-18T22:24:06.016Z,2.13
2022-10-18T22:26:36.432Z,2.03
2022-10-18T22:29:08.253Z,2.50
2022-10-18T22:31:42.571Z,2.63
2022-10-18T22:34:13.927Z,2.80
2022-10-18T22:36:42.326Z,2.85
2022-10-18T22:39:11.203Z,2.78
2022-10-18T22:41:39.550Z,2.70
2022-10-18T22:44:08.147Z,2.40
2022-10-18T22:46:36.680Z,2.70
2022-10-18T22:49:06.173Z,2.40
2022-10-18T22:54:03.541Z,2.30
2022-10-18T22:56:31.560Z,2.63
2022-10-18T22:58:59.661Z,2.58
2022-10-18T23:01:27.956Z,1.92
2022-10-18T23:03:56.580Z,2.10
2022-10-18T23:06:28.094Z,2.17
2022-10-18T23:08:58.257Z,2.60
2022-10-18T23:11:30.076Z,2.70
2022-10-18T23:13:58.406Z,2.92
2022-10-18T23:16:26.455Z,2.20
2022-10-18T23:18:56.915Z,2.17
2022-10-18T23:21:28.283Z,2.00
2022-10-18T23:23:57.250Z,2.30
2022-10-18T23:26:27.746Z,2.80
2022-10-18T23:28:56.780Z,2.10
2022-10-18T23:31:26.846Z,2.25
2022-10-18T23:33:56.269Z,2.88
2022-10-18T23:36:26.203Z,2.65
2022-10-18T23:38:55.176Z,2.45
2022-10-18T23:41:23.634Z,2.80
2022-10-18T23:43:52.605Z,2.90
2022-10-18T23:46:21.321Z,2.20
2022-10-18T23:48:50.024Z,2.58
2022-10-18T23:51:18.830Z,2.63
2022-10-18T23:53:48.545Z,2.38
2022-10-18T23:56:17.619Z,1.98
2022-10-18T23:58:46.282Z,1.95
